Time;durP1;ratioP1;P1;durP2;ratioP2;P2;SDS_P1;SDS_P2;PMS_P1;PMS_P2;Temp;Humidity;BMP_temperature;BMP_pressure;BME280_temperature;BME280_humidity;BME280_pressure;Samples;Min_cycle;Max_cycle;Signal;HPM_P1;HPM_P2
2023/12/27 00:00:03;;;;;;;10.70;6.30;;;;;;;;;;5086385;28;20048;-68
2023/12/27 00:02:31;;;;;;;10.98;6.75;;;;;;;;;;5082287;28;20495;-68
2023/12/27 00:04:58;;;;;;;11.23;6.63;;;;;;;;;;5079731;28;20403;-68
2023/12/27 00:07:26;;;;;;;13.93;6.57;;;;;;;;;;5089454;28;20044;-68
2023/12/27 00:09:53;;;;;;;12.27;6.70;;;;;;;;;;5078490;28;20040;-68
2023/12/27 00:12:19;;;;;;;14.75;6.53;;;;;;;;;;5077336;28;20043;-68
2023/12/27 00:14:46;;;;;;;12.52;6.28;;;;;;;;;;5080504;28;20049;-69
2023/12/27 00:17:12;;;;;;;9.77;6.32;;;;;;;;;;5079951;28;20043;-68
2023/12/27 00:19:40;;;;;;;11.55;5.93;;;;;;;;;;5082554;28;20051;-68
2023/12/27 00:22:08;;;;;;;11.43;6.72;;;;;;;;;;5090638;28;20116;-68
2023/12/27 00:24:35;;;;;;;10.88;5.80;;;;;;;;;;5084402;28;20058;-68
2023/12/27 00:27:01;;;;;;;10.80;5.20;;;;;;;;;;5083110;28;20048;-68
2023/12/27 00:29:28;;;;;;;10.43;5.65;;;;;;;;;;5084173;28;20418;-68
2023/12/27 00:31:54;;;;;;;9.75;5.22;;;;;;;;;;5085252;28;20048;-68
2023/12/27 00:34:21;;;;;;;10.25;5.47;;;;;;;;;;5087621;28;20040;-68
2023/12/27 00:36:51;;;;;;;10.10;5.45;;;;;;;;;;5082157;28;20491;-68
2023/12/27 00:39:23;;;;;;;9.02;5.05;;;;;;;;;;5083286;28;20044;-68
2023/12/27 00:41:50;;;;;;;11.95;5.78;;;;;;;;;;5079841;28;20048;-68
2023/12/27 00:44:16;;;;;;;9.55;5.22;;;;;;;;;;5081107;28;20079;-68
2023/12/27 00:46:43;;;;;;;6.75;4.78;;;;;;;;;;5082854;28;20045;-67
2023/12/27 00:49:10;;;;;;;8.07;4.90;;;;;;;;;;5089906;28;20487;-68
2023/12/27 00:51:36;;;;;;;8.82;5.45;;;;;;;;;;5081449;28;20051;-69
2023/12/27 00:54:04;;;;;;;7.97;5.07;;;;;;;;;;5077619;28;20492;-68
2023/12/27 00:56:31;;;;;;;10.80;4.93;;;;;;;;;;5081682;28;20515;-68
2023/12/27 00:58:58;;;;;;;9.43;4.90;;;;;;;;;;5083526;28;20044;-68
2023/12/27 01:01:24;;;;;;;10.20;5.10;;;;;;;;;;5092165;28;20094;-68
2023/12/27 01:03:51;;;;;;;9.98;4.75;;;;;;;;;;5090987;28;20055;-68
2023/12/27 01:06:17;;;;;;;7.80;5.25;;;;;;;;;;5091332;28;20072;-68
2023/12/27 01:08:44;;;;;;;8.50;5.18;;;;;;;;;;5079746;28;20051;-68
2023/12/27 01:11:11;;;;;;;8.05;4.97;;;;;;;;;;5088451;28;20513;-68
2023/12/27 01:13:38;;;;;;;9.43;5.13;;;;;;;;;;5087701;28;20085;-68
2023/12/27 01:16:05;;;;;;;6.68;4.80;;;;;;;;;;5089588;28;20553;-68
2023/12/27 01:18:32;;;;;;;14.98;5.80;;;;;;;;;;5079579;28;20048;-68
2023/12/27 01:20:58;;;;;;;9.45;4.63;;;;;;;;;;5092546;28;20055;-68
2023/12/27 01:23:25;;;;;;;10.30;5.15;;;;;;;;;;5092018;28;20050;-68
2023/12/27 01:25:51;;;;;;;8.15;5.35;;;;;;;;;;5088761;28;20050;-69
2023/12/27 01:28:19;;;;;;;11.00;5.30;;;;;;;;;;5089173;28;20040;-68
2023/12/27 01:30:46;;;;;;;10.40;5.20;;;;;;;;;;5091796;28;20047;-68
2023/12/27 01:33:12;;;;;;;9.55;5.15;;;;;;;;;;5093750;28;20487;-68
2023/12/27 01:35:40;;;;;;;6.47;4.28;;;;;;;;;;5091911;28;20050;-68
2023/12/27 01:38:06;;;;;;;7.93;4.45;;;;;;;;;;5085711;28;20105;-68
2023/12/27 01:40:32;;;;;;;6.22;4.28;;;;;;;;;;5089089;28;20047;-68
2023/12/27 01:42:59;;;;;;;10.68;4.80;;;;;;;;;;5091918;28;20044;-68
2023/12/27 01:45:27;;;;;;;7.47;4.57;;;;;;;;;;5089023;28;20047;-69
2023/12/27 01:47:53;;;;;;;6.72;5.10;;;;;;;;;;5082170;28;20048;-68
2023/12/27 01:50:21;;;;;;;8.63;4.57;;;;;;;;;;5091578;28;20055;-68
2023/12/27 01:52:48;;;;;;;6.95;4.35;;;;;;;;;;5083341;28;20048;-69
2023/12/27 01:55:15;;;;;;;8.48;4.50;;;;;;;;;;5088842;28;20066;-68
2023/12/27 01:57:42;;;;;;;7.75;4.88;;;;;;;;;;5088580;28;20046;-68
2023/12/27 02:00:09;;;;;;;6.53;4.57;;;;;;;;;;5085000;28;20040;-68
2023/12/27 02:02:38;;;;;;;9.70;4.82;;;;;;;;;;5091399;28;20044;-68
2023/12/27 02:05:06;;;;;;;12.52;4.85;;;;;;;;;;5091071;28;20056;-68
2023/12/27 02:07:33;;;;;;;8.05;5.10;;;;;;;;;;5085618;28;20513;-68
2023/12/27 02:09:59;;;;;;;7.05;4.63;;;;;;;;;;5080441;28;20510;-68
2023/12/27 02:12:27;;;;;;;10.35;5.28;;;;;;;;;;5080158;28;20052;-68
2023/12/27 02:14:53;;;;;;;10.35;5.97;;;;;;;;;;5081051;28;20506;-68
2023/12/27 02:17:20;;;;;;;9.68;5.35;;;;;;;;;;5090301;28;20044;-68
2023/12/27 02:19:48;;;;;;;10.38;5.80;;;;;;;;;;5090872;28;20051;-68
2023/12/27 02:22:19;;;;;;;8.95;5.35;;;;;;;;;;5090765;28;20050;-68
2023/12/27 02:24:48;;;;;;;10.20;5.72;;;;;;;;;;5085885;28;20052;-68
2023/12/27 02:27:14;;;;;;;10.25;5.13;;;;;;;;;;5092779;28;20048;-68
2023/12/27 02:29:41;;;;;;;10.13;5.25;;;;;;;;;;5083524;28;20076;-68
2023/12/27 02:32:08;;;;;;;11.55;5.65;;;;;;;;;;5092307;28;20314;-68
2023/12/27 02:34:35;;;;;;;11.48;6.32;;;;;;;;;;5087283;28;20514;-68
2023/12/27 02:37:01;;;;;;;10.68;5.28;;;;;;;;;;5086316;28;20051;-68
2023/12/27 02:39:28;;;;;;;9.35;5.68;;;;;;;;;;5087232;28;20044;-68
2023/12/27 02:41:56;;;;;;;6.78;5.45;;;;;;;;;;5089996;28;20062;-69
2023/12/27 02:44:25;;;;;;;9.90;4.82;;;;;;;;;;5084596;28;20044;-68
2023/12/27 02:46:52;;;;;;;8.40;6.32;;;;;;;;;;5080405;28;20048;-68
2023/12/27 02:49:18;;;;;;;8.60;5.15;;;;;;;;;;5082893;28;20046;-68
2023/12/27 02:51:45;;;;;;;9.65;5.47;;;;;;;;;;5079926;28;20055;-68
2023/12/27 02:54:12;;;;;;;10.25;5.47;;;;;;;;;;5085902;28;20048;-68
2023/12/27 02:56:38;;;;;;;8.68;5.28;;;;;;;;;;5085090;28;20051;-68
2023/12/27 02:59:08;;;;;;;9.70;5.45;;;;;;;;;;5090690;28;20059;-68
2023/12/27 03:01:34;;;;;;;11.38;5.78;;;;;;;;;;5079585;28;20043;-68
2023/12/27 03:04:01;;;;;;;9.98;5.60;;;;;;;;;;5086502;28;20041;-68
2023/12/27 03:06:28;;;;;;;8.35;5.65;;;;;;;;;;5079754;28;20522;-69
2023/12/27 03:08:54;;;;;;;7.45;5.28;;;;;;;;;;5086957;28;20044;-68
2023/12/27 03:11:21;;;;;;;9.85;5.30;;;;;;;;;;5086642;28;20044;-68
2023/12/27 03:13:47;;;;;;;9.55;5.07;;;;;;;;;;5085888;28;20078;-68
2023/12/27 03:16:19;;;;;;;12.73;5.30;;;;;;;;;;5089751;28;20051;-68
2023/12/27 03:18:45;;;;;;;11.02;5.30;;;;;;;;;;5082912;28;20098;-68
2023/12/27 03:21:12;;;;;;;8.10;5.22;;;;;;;;;;5086456;28;20055;-68
2023/12/27 03:23:38;;;;;;;7.90;4.97;;;;;;;;;;5080953;28;20047;-68
2023/12/27 03:26:05;;;;;;;10.52;5.13;;;;;;;;;;5086196;28;20058;-68
2023/12/27 03:28:31;;;;;;;12.32;5.50;;;;;;;;;;5079979;28;20047;-68
2023/12/27 03:30:58;;;;;;;6.90;4.65;;;;;;;;;;5080466;28;20099;-68
2023/12/27 03:33:26;;;;;;;7.97;5.00;;;;;;;;;;5086759;28;20044;-68
2023/12/27 03:35:53;;;;;;;9.10;5.32;;;;;;;;;;5091529;28;20044;-68
2023/12/27 03:38:19;;;;;;;8.25;5.05;;;;;;;;;;5081236;28;20051;-68
2023/12/27 03:40:46;;;;;;;7.43;5.40;;;;;;;;;;5082498;28;20048;-68
2023/12/27 03:43:12;;;;;;;8.23;5.15;;;;;;;;;;5081754;28;20048;-68
2023/12/27 03:45:39;;;;;;;10.70;5.65;;;;;;;;;;5085294;28;20052;-68
2023/12/27 03:48:06;;;;;;;12.43;6.00;;;;;;;;;;5085281;28;20058;-68
2023/12/27 03:50:34;;;;;;;12.27;5.95;;;;;;;;;;5079486;28;20442;-68
2023/12/27 03:53:01;;;;;;;11.23;5.47;;;;;;;;;;5081110;28;20044;-68
2023/12/27 03:55:27;;;;;;;11.30;6.13;;;;;;;;;;5087071;28;20048;-68
2023/12/27 03:57:54;;;;;;;10.18;5.82;;;;;;;;;;5081731;28;20488;-68
2023/12/27 04:00:21;;;;;;;10.15;5.97;;;;;;;;;;5079847;28;20511;-68
2023/12/27 04:02:48;;;;;;;11.20;6.03;;;;;;;;;;5083277;28;20041;-68
2023/12/27 04:05:15;;;;;;;14.80;6.68;;;;;;;;;;5080058;28;20138;-68
2023/12/27 04:07:42;;;;;;;16.13;7.22;;;;;;;;;;5080145;28;20044;-68
2023/12/27 04:10:09;;;;;;;10.82;6.03;;;;;;;;;;5082214;28;20051;-68
2023/12/27 04:12:36;;;;;;;10.00;5.80;;;;;;;;;;5087019;28;20048;-68
2023/12/27 04:15:03;;;;;;;7.90;5.22;;;;;;;;;;5090540;28;20492;-68
2023/12/27 04:17:30;;;;;;;13.57;6.07;;;;;;;;;;5084419;28;20048;-68
2023/12/27 04:19:56;;;;;;;9.90;5.88;;;;;;;;;;5084357;28;20640;-68
2023/12/27 04:22:22;;;;;;;9.52;5.80;;;;;;;;;;5086064;28;20050;-68
2023/12/27 04:24:50;;;;;;;9.75;5.43;;;;;;;;;;5086952;28;20047;-68
2023/12/27 04:27:17;;;;;;;9.48;5.40;;;;;;;;;;5089070;28;20051;-68
2023/12/27 04:29:43;;;;;;;12.38;6.40;;;;;;;;;;5084568;28;20040;-68
2023/12/27 04:32:10;;;;;;;12.15;5.20;;;;;;;;;;5086534;28;20463;-68
2023/12/27 04:34:36;;;;;;;10.18;5.97;;;;;;;;;;5084431;28;20051;-69
2023/12/27 04:37:03;;;;;;;11.27;6.40;;;;;;;;;;5084638;28;20055;-68
2023/12/27 04:39:29;;;;;;;9.68;5.80;;;;;;;;;;5085243;28;20044;-68
2023/12/27 04:41:57;;;;;;;8.18;4.97;;;;;;;;;;5082845;28;20470;-69
2023/12/27 04:44:23;;;;;;;8.82;5.82;;;;;;;;;;5080995;28;20413;-68
2023/12/27 04:46:49;;;;;;;7.88;5.68;;;;;;;;;;5075864;28;20052;-68
2023/12/27 04:49:16;;;;;;;10.73;5.95;;;;;;;;;;5077368;28;20044;-68
2023/12/27 04:51:44;;;;;;;10.02;5.47;;;;;;;;;;5083053;28;20131;-68
2023/12/27 04:54:10;;;;;;;9.95;5.57;;;;;;;;;;5077593;28;20410;-68
2023/12/27 04:56:37;;;;;;;7.03;5.07;;;;;;;;;;5085161;28;20059;-69
2023/12/27 04:59:05;;;;;;;11.23;5.47;;;;;;;;;;5077591;28;20488;-68
2023/12/27 05:01:31;;;;;;;8.02;5.40;;;;;;;;;;5080916;28;20426;-68
2023/12/27 05:03:58;;;;;;;7.72;4.88;;;;;;;;;;5083266;28;20064;-68
2023/12/27 05:06:24;;;;;;;8.98;5.53;;;;;;;;;;5081202;28;20052;-69
2023/12/27 05:08:51;;;;;;;11.57;6.45;;;;;;;;;;5078337;28;20506;-68
2023/12/27 05:11:21;;;;;;;11.35;5.78;;;;;;;;;;5089115;28;20067;-68
2023/12/27 05:13:48;;;;;;;11.00;6.07;;;;;;;;;;5085355;28;20532;-68
2023/12/27 05:16:17;;;;;;;12.73;5.18;;;;;;;;;;5078291;28;20055;-68
2023/12/27 05:18:45;;;;;;;8.65;6.13;;;;;;;;;;5076956;28;20601;-68
2023/12/27 05:21:13;;;;;;;11.30;6.10;;;;;;;;;;5083955;28;20522;-69
2023/12/27 05:23:40;;;;;;;13.93;6.15;;;;;;;;;;5082643;28;20044;-68
2023/12/27 05:26:07;;;;;;;12.18;6.55;;;;;;;;;;5084501;28;20051;-68
2023/12/27 05:28:34;;;;;;;11.43;6.28;;;;;;;;;;5083862;28;20051;-68
2023/12/27 05:31:00;;;;;;;10.93;6.32;;;;;;;;;;5083115;28;20050;-68
2023/12/27 05:33:28;;;;;;;12.07;6.20;;;;;;;;;;5083267;28;20091;-69
2023/12/27 05:35:55;;;;;;;12.40;6.50;;;;;;;;;;5084967;28;20048;-68
2023/12/27 05:38:22;;;;;;;11.05;5.85;;;;;;;;;;5090321;28;20530;-68
2023/12/27 05:40:49;;;;;;;8.48;5.07;;;;;;;;;;5084836;28;20475;-68
2023/12/27 05:43:15;;;;;;;8.57;6.03;;;;;;;;;;5083694;28;20048;-68
2023/12/27 05:45:42;;;;;;;11.23;6.20;;;;;;;;;;5085703;28;20048;-68
2023/12/27 05:48:09;;;;;;;12.13;6.30;;;;;;;;;;5085237;28;20040;-68
2023/12/27 05:50:37;;;;;;;8.55;5.53;;;;;;;;;;5090040;28;20070;-69
2023/12/27 05:53:04;;;;;;;10.43;6.07;;;;;;;;;;5087004;28;20127;-69
2023/12/27 05:55:30;;;;;;;10.45;5.80;;;;;;;;;;5084650;28;20045;-69
2023/12/27 05:57:57;;;;;;;11.70;5.97;;;;;;;;;;5087452;28;20099;-69
2023/12/27 06:00:24;;;;;;;8.43;5.85;;;;;;;;;;5083933;28;20055;-69
2023/12/27 06:02:50;;;;;;;11.75;5.93;;;;;;;;;;5090542;28;20048;-69
2023/12/27 06:05:17;;;;;;;10.80;5.97;;;;;;;;;;5087909;28;20074;-69
2023/12/27 06:07:44;;;;;;;11.68;5.82;;;;;;;;;;5086995;28;20499;-68
2023/12/27 06:10:11;;;;;;;10.50;5.65;;;;;;;;;;5083343;28;20518;-68
2023/12/27 06:12:38;;;;;;;10.07;5.45;;;;;;;;;;5087310;28;20056;-68
2023/12/27 06:15:05;;;;;;;11.60;5.70;;;;;;;;;;5092999;28;20411;-68
2023/12/27 06:17:32;;;;;;;9.38;5.40;;;;;;;;;;5093022;28;20044;-68
2023/12/27 06:19:58;;;;;;;11.07;5.75;;;;;;;;;;5092102;28;20118;-68
2023/12/27 06:22:25;;;;;;;10.23;5.53;;;;;;;;;;5084010;28;20044;-68
2023/12/27 06:24:53;;;;;;;11.63;6.00;;;;;;;;;;5081801;28;20047;-68
2023/12/27 06:27:19;;;;;;;10.98;6.47;;;;;;;;;;5084279;28;20083;-68
2023/12/27 06:29:46;;;;;;;11.20;7.18;;;;;;;;;;5093158;28;20484;-68
2023/12/27 06:32:13;;;;;;;11.20;6.47;;;;;;;;;;5093183;28;20043;-68
2023/12/27 06:34:39;;;;;;;12.63;7.00;;;;;;;;;;5091997;28;20043;-68
2023/12/27 06:37:06;;;;;;;12.60;6.03;;;;;;;;;;5092781;28;20247;-68
2023/12/27 06:39:32;;;;;;;13.25;6.78;;;;;;;;;;5087637;28;20044;-68
2023/12/27 06:42:02;;;;;;;12.95;6.47;;;;;;;;;;5086121;28;20041;-69
2023/12/27 06:44:29;;;;;;;12.85;7.05;;;;;;;;;;5081784;28;20044;-68
2023/12/27 06:46:55;;;;;;;11.55;7.07;;;;;;;;;;5089537;28;20048;-68
2023/12/27 06:49:22;;;;;;;14.20;6.65;;;;;;;;;;5083185;28;20155;-68
2023/12/27 06:51:48;;;;;;;10.90;6.35;;;;;;;;;;5086023;28;20397;-68
2023/12/27 06:54:15;;;;;;;11.38;6.50;;;;;;;;;;5085328;28;20047;-68
2023/12/27 06:56:41;;;;;;;10.25;6.47;;;;;;;;;;5090309;28;20376;-68
2023/12/27 06:59:09;;;;;;;9.65;6.32;;;;;;;;;;5085547;28;20048;-69
2023/12/27 07:01:36;;;;;;;9.15;5.82;;;;;;;;;;5082351;28;20131;-68
2023/12/27 07:04:03;;;;;;;9.43;6.05;;;;;;;;;;5081124;28;20051;-68
2023/12/27 07:06:30;;;;;;;13.75;5.80;;;;;;;;;;5081934;28;20427;-68
2023/12/27 07:08:56;;;;;;;10.48;5.95;;;;;;;;;;5087200;28;20047;-68
2023/12/27 07:11:23;;;;;;;8.30;5.72;;;;;;;;;;5088675;28;20048;-68
2023/12/27 07:13:49;;;;;;;9.63;5.03;;;;;;;;;;5080812;28;20052;-68
2023/12/27 07:16:17;;;;;;;6.35;4.32;;;;;;;;;;5090882;28;20051;-68
2023/12/27 07:18:44;;;;;;;7.00;4.07;;;;;;;;;;5088205;28;20051;-69
2023/12/27 07:21:12;;;;;;;4.50;3.28;;;;;;;;;;5086079;28;20054;-68
2023/12/27 07:23:39;;;;;;;4.88;3.17;;;;;;;;;;5083585;28;20040;-68
2023/12/27 07:26:06;;;;;;;4.72;3.20;;;;;;;;;;5082625;28;20062;-69
2023/12/27 07:28:32;;;;;;;6.18;2.83;;;;;;;;;;5087102;28;20131;-68
2023/12/27 07:30:59;;;;;;;4.88;2.10;;;;;;;;;;5090145;28;20042;-68
2023/12/27 07:33:27;;;;;;;3.05;2.05;;;;;;;;;;5088368;28;20518;-68
2023/12/27 07:35:53;;;;;;;3.83;2.17;;;;;;;;;;5078994;28;20044;-69
2023/12/27 07:38:20;;;;;;;2.63;1.75;;;;;;;;;;5090158;28;20044;-68
2023/12/27 07:40:46;;;;;;;4.13;1.60;;;;;;;;;;5079153;28;20465;-69
2023/12/27 07:43:13;;;;;;;3.28;1.67;;;;;;;;;;5086214;28;20046;-68
2023/12/27 07:45:39;;;;;;;3.08;1.70;;;;;;;;;;5078492;28;20420;-69
2023/12/27 07:48:06;;;;;;;1.63;1.30;;;;;;;;;;5087333;28;20059;-68
2023/12/27 07:50:36;;;;;;;1.83;1.25;;;;;;;;;;5089362;28;20044;-69
2023/12/27 07:53:02;;;;;;;1.90;1.48;;;;;;;;;;5087802;28;20098;-68
2023/12/27 07:55:29;;;;;;;1.92;1.60;;;;;;;;;;5086377;28;20075;-68
2023/12/27 07:57:56;;;;;;;3.03;1.60;;;;;;;;;;5090145;28;20047;-68
2023/12/27 08:00:22;;;;;;;2.15;1.40;;;;;;;;;;5090611;28;20044;-68
2023/12/27 08:02:50;;;;;;;1.80;1.48;;;;;;;;;;5083382;28;20058;-68
2023/12/27 08:05:17;;;;;;;2.63;1.60;;;;;;;;;;5091122;28;20118;-68
2023/12/27 08:07:45;;;;;;;3.85;2.10;;;;;;;;;;5087967;28;20090;-68
2023/12/27 08:10:11;;;;;;;2.10;1.85;;;;;;;;;;5082595;28;20041;-68
2023/12/27 08:12:38;;;;;;;2.75;1.75;;;;;;;;;;5083545;28;20055;-68
2023/12/27 08:15:06;;;;;;;2.20;1.77;;;;;;;;;;5083552;28;20495;-68
2023/12/27 08:17:33;;;;;;;4.22;1.70;;;;;;;;;;5090237;28;20071;-69
2023/12/27 08:20:04;;;;;;;3.63;1.80;;;;;;;;;;5088823;28;20044;-68
2023/12/27 08:22:30;;;;;;;3.67;1.98;;;;;;;;;;5087372;28;20048;-69
2023/12/27 08:24:58;;;;;;;3.92;2.10;;;;;;;;;;5090636;28;20508;-68
2023/12/27 08:27:25;;;;;;;3.30;2.30;;;;;;;;;;5085493;28;20048;-68
2023/12/27 08:29:51;;;;;;;3.50;1.58;;;;;;;;;;5086948;28;20048;-69
2023/12/27 08:32:18;;;;;;;3.13;1.73;;;;;;;;;;5090549;28;20044;-68
2023/12/27 08:34:44;;;;;;;4.60;1.90;;;;;;;;;;5085955;28;20041;-68
2023/12/27 08:37:11;;;;;;;3.88;1.77;;;;;;;;;;5084905;28;20044;-68
2023/12/27 08:39:38;;;;;;;4.38;1.95;;;;;;;;;;5087004;28;20464;-68
2023/12/27 08:42:07;;;;;;;2.85;1.60;;;;;;;;;;5085777;28;20044;-68
2023/12/27 08:44:34;;;;;;;2.55;1.33;;;;;;;;;;5081149;28;20044;-68
2023/12/27 08:47:01;;;;;;;1.92;1.40;;;;;;;;;;5090373;28;20097;-68
2023/12/27 08:49:27;;;;;;;3.10;1.70;;;;;;;;;;5080175;28;20048;-68
2023/12/27 08:51:54;;;;;;;4.07;1.80;;;;;;;;;;5089522;28;20048;-68
2023/12/27 08:54:21;;;;;;;3.03;1.50;;;;;;;;;;5086348;28;20044;-68
2023/12/27 08:56:47;;;;;;;2.25;1.40;;;;;;;;;;5085476;28;20044;-68
2023/12/27 08:59:15;;;;;;;2.85;1.58;;;;;;;;;;5089495;28;20040;-68
2023/12/27 09:01:42;;;;;;;4.25;1.50;;;;;;;;;;5085269;28;20048;-68
2023/12/27 09:04:09;;;;;;;5.20;1.60;;;;;;;;;;5088881;28;20043;-69
2023/12/27 09:06:35;;;;;;;4.07;1.52;;;;;;;;;;5085733;28;20051;-68
2023/12/27 09:09:02;;;;;;;4.13;1.90;;;;;;;;;;5086763;28;20127;-68
2023/12/27 09:11:29;;;;;;;4.25;1.90;;;;;;;;;;5083115;28;20048;-68
2023/12/27 09:13:56;;;;;;;2.17;1.50;;;;;;;;;;5086022;28;20048;-68
2023/12/27 09:16:23;;;;;;;3.78;1.60;;;;;;;;;;5083660;28;20487;-68
2023/12/27 09:18:50;;;;;;;4.13;1.60;;;;;;;;;;5083649;28;20072;-68
2023/12/27 09:21:16;;;;;;;2.30;1.55;;;;;;;;;;5092905;28;20040;-68
2023/12/27 09:23:43;;;;;;;1.70;1.35;;;;;;;;;;5091832;28;20050;-68
2023/12/27 09:26:12;;;;;;;3.63;1.67;;;;;;;;;;5092128;28;20048;-69
2023/12/27 09:28:38;;;;;;;3.38;1.30;;;;;;;;;;5089557;28;20415;-68
2023/12/27 09:31:05;;;;;;;4.30;1.73;;;;;;;;;;5092422;28;20047;-68
2023/12/27 09:33:33;;;;;;;2.20;1.45;;;;;;;;;;5086938;28;20503;-69
2023/12/27 09:35:59;;;;;;;2.88;1.50;;;;;;;;;;5090002;28;20446;-68
2023/12/27 09:38:26;;;;;;;4.25;1.90;;;;;;;;;;5088906;28;20048;-68
2023/12/27 09:40:52;;;;;;;7.55;1.85;;;;;;;;;;5092967;28;20054;-68
2023/12/27 09:43:21;;;;;;;3.42;1.73;;;;;;;;;;5090351;28;20051;-68
2023/12/27 09:45:49;;;;;;;3.30;1.70;;;;;;;;;;5087085;28;20048;-68
2023/12/27 09:48:18;;;;;;;2.38;1.88;;;;;;;;;;5092192;28;20050;-68
2023/12/27 09:50:47;;;;;;;3.47;1.65;;;;;;;;;;5089930;28;20052;-67
2023/12/27 09:53:15;;;;;;;2.65;1.45;;;;;;;;;;5088787;28;20044;-68
2023/12/27 09:55:42;;;;;;;5.38;1.90;;;;;;;;;;5088052;28;20332;-68
2023/12/27 09:58:09;;;;;;;6.40;2.17;;;;;;;;;;5088588;28;20415;-68
2023/12/27 10:00:36;;;;;;;3.00;1.80;;;;;;;;;;5084896;28;20053;-68
2023/12/27 10:03:05;;;;;;;6.05;1.80;;;;;;;;;;5092382;28;20054;-68
2023/12/27 10:05:39;;;;;;;3.65;1.80;;;;;;;;;;5092232;28;20044;-68
2023/12/27 10:08:08;;;;;;;4.85;1.75;;;;;;;;;;5090719;28;20520;-68
2023/12/27 10:10:36;;;;;;;3.75;1.65;;;;;;;;;;5084027;28;20048;-68
2023/12/27 10:13:05;;;;;;;3.45;1.95;;;;;;;;;;5092297;28;20071;-68
2023/12/27 10:15:31;;;;;;;3.38;1.60;;;;;;;;;;5088707;28;20059;-68
2023/12/27 10:17:58;;;;;;;3.25;1.90;;;;;;;;;;5092574;28;20172;-68
2023/12/27 10:20:32;;;;;;;2.30;1.55;;;;;;;;;;5088510;28;20044;-68
2023/12/27 10:22:59;;;;;;;5.88;2.10;;;;;;;;;;5081782;28;20074;-68
2023/12/27 10:25:28;;;;;;;4.60;1.90;;;;;;;;;;5092149;28;20044;-68
2023/12/27 10:27:55;;;;;;;5.65;2.10;;;;;;;;;;5090121;28;20435;-68
2023/12/27 10:30:21;;;;;;;1.77;1.55;;;;;;;;;;5090995;28;20040;-67
2023/12/27 10:32:57;;;;;;;3.30;1.60;;;;;;;;;;5091351;28;20054;-68
2023/12/27 10:35:27;;;;;;;2.22;1.55;;;;;;;;;;5091770;28;20048;-68
2023/12/27 10:38:00;;;;;;;3.90;1.60;;;;;;;;;;5089775;28;20055;-68
2023/12/27 10:40:29;;;;;;;7.22;1.92;;;;;;;;;;5087491;28;20040;-68
2023/12/27 10:42:56;;;;;;;2.67;1.60;;;;;;;;;;5084678;28;20497;-68
2023/12/27 10:45:23;;;;;;;6.10;2.20;;;;;;;;;;5082308;28;20127;-68
2023/12/27 10:47:56;;;;;;;3.03;1.60;;;;;;;;;;5091929;28;20047;-67
2023/12/27 10:50:23;;;;;;;2.67;1.83;;;;;;;;;;5086861;28;20087;-68
2023/12/27 10:52:56;;;;;;;2.17;1.80;;;;;;;;;;5082102;28;20051;-68
2023/12/27 10:55:30;;;;;;;4.10;1.90;;;;;;;;;;5088257;28;20079;-68
2023/12/27 10:57:57;;;;;;;3.97;1.60;;;;;;;;;;5087482;28;20059;-68
2023/12/27 11:00:24;;;;;;;3.47;1.58;;;;;;;;;;5088679;28;20158;-68
2023/12/27 11:02:51;;;;;;;3.67;1.85;;;;;;;;;;5090186;28;20051;-68
2023/12/27 11:05:23;;;;;;;3.10;1.65;;;;;;;;;;5087736;28;20309;-68
2023/12/27 11:07:52;;;;;;;4.82;2.03;;;;;;;;;;5087125;28;20131;-68
2023/12/27 11:10:19;;;;;;;4.07;1.90;;;;;;;;;;5092844;28;20467;-68
2023/12/27 11:12:48;;;;;;;3.20;1.65;;;;;;;;;;5089976;28;20044;-68
2023/12/27 11:15:15;;;;;;;5.75;1.98;;;;;;;;;;5088931;28;20480;-68
2023/12/27 11:17:42;;;;;;;5.25;1.83;;;;;;;;;;5082365;28;20051;-68
2023/12/27 11:20:11;;;;;;;4.05;1.83;;;;;;;;;;5091135;28;20435;-68
2023/12/27 11:22:39;;;;;;;2.35;1.65;;;;;;;;;;5084092;28;20414;-68
2023/12/27 11:25:06;;;;;;;3.95;1.63;;;;;;;;;;5089396;28;20066;-69
2023/12/27 11:27:33;;;;;;;4.32;1.65;;;;;;;;;;5088575;28;20048;-68
2023/12/27 11:30:01;;;;;;;6.22;1.60;;;;;;;;;;5086426;28;20048;-68
2023/12/27 11:32:28;;;;;;;2.35;1.58;;;;;;;;;;5091095;28;20044;-68
2023/12/27 11:34:55;;;;;;;4.03;1.63;;;;;;;;;;5085003;28;20040;-68
2023/12/27 11:37:23;;;;;;;5.00;1.52;;;;;;;;;;5088720;28;20048;-68
2023/12/27 11:39:52;;;;;;;3.80;1.90;;;;;;;;;;5089627;28;20507;-67
2023/12/27 11:42:19;;;;;;;2.60;1.73;;;;;;;;;;5091390;28;20051;-68
2023/12/27 11:44:48;;;;;;;5.70;1.63;;;;;;;;;;5083734;28;20047;-68
2023/12/27 11:47:17;;;;;;;6.93;1.90;;;;;;;;;;5090490;28;20423;-68
2023/12/27 11:50:05;;;;;;;5.10;1.65;;;;;;;;;;5081560;28;20045;-68
2023/12/27 11:52:34;;;;;;;4.70;2.17;;;;;;;;;;5090338;28;20044;-68
2023/12/27 11:55:15;;;;;;;4.72;1.83;;;;;;;;;;5086904;28;20044;-69
2023/12/27 11:57:41;;;;;;;3.25;1.60;;;;;;;;;;5080438;28;20048;-68
2023/12/27 12:00:09;;;;;;;6.45;1.98;;;;;;;;;;5090320;28;20044;-68
2023/12/27 12:02:40;;;;;;;4.53;1.77;;;;;;;;;;5083029;28;20058;-68
2023/12/27 12:05:17;;;;;;;6.28;2.20;;;;;;;;;;5089232;28;20567;-68
2023/12/27 12:08:02;;;;;;;4.07;1.77;;;;;;;;;;5081936;28;20461;-69
2023/12/27 12:10:29;;;;;;;3.85;1.80;;;;;;;;;;5084207;28;20044;-68
2023/12/27 12:12:58;;;;;;;4.32;1.88;;;;;;;;;;5085191;28;20051;-67
2023/12/27 12:15:29;;;;;;;7.85;2.78;;;;;;;;;;5087261;28;20043;-68
2023/12/27 12:17:57;;;;;;;3.50;2.10;;;;;;;;;;5078281;28;20058;-68
2023/12/27 12:20:23;;;;;;;5.40;2.00;;;;;;;;;;5091268;28;20495;-68
2023/12/27 12:22:51;;;;;;;3.75;1.70;;;;;;;;;;5089499;28;20109;-67
2023/12/27 12:25:24;;;;;;;7.13;2.45;;;;;;;;;;5089422;28;20478;-68
2023/12/27 12:27:51;;;;;;;10.63;2.42;;;;;;;;;;5086710;28;20198;-67
2023/12/27 12:30:17;;;;;;;6.50;1.88;;;;;;;;;;5089977;28;20048;-67
2023/12/27 12:32:44;;;;;;;2.75;1.85;;;;;;;;;;5087693;28;20141;-67
2023/12/27 12:35:12;;;;;;;3.92;2.00;;;;;;;;;;5086573;28;20495;-68
2023/12/27 12:37:39;;;;;;;3.83;1.80;;;;;;;;;;5078534;28;20144;-68
2023/12/27 12:40:08;;;;;;;4.72;2.00;;;;;;;;;;5088305;28;20110;-68
2023/12/27 12:42:38;;;;;;;5.65;2.05;;;;;;;;;;5077747;28;20503;-68
2023/12/27 12:45:05;;;;;;;4.53;2.50;;;;;;;;;;5083765;28;20416;-69
2023/12/27 12:47:35;;;;;;;3.22;2.08;;;;;;;;;;5077917;28;20052;-68
2023/12/27 12:50:01;;;;;;;8.93;6.00;;;;;;;;;;5085510;28;20056;-68
2023/12/27 12:52:29;;;;;;;5.40;3.65;;;;;;;;;;5085810;28;20048;-68
2023/12/27 12:55:00;;;;;;;5.95;2.15;;;;;;;;;;5076539;28;20044;-68
2023/12/27 12:57:29;;;;;;;10.10;6.25;;;;;;;;;;5086554;28;20049;-67
2023/12/27 12:59:56;;;;;;;7.85;3.15;;;;;;;;;;5092965;28;20423;-68
2023/12/27 13:02:22;;;;;;;4.50;2.45;;;;;;;;;;5088789;28;20505;-67
2023/12/27 13:04:51;;;;;;;6.82;2.70;;;;;;;;;;5091478;28;20048;-68
2023/12/27 13:07:17;;;;;;;9.02;4.93;;;;;;;;;;5087835;28;20052;-68
2023/12/27 13:09:59;;;;;;;8.77;2.30;;;;;;;;;;5092863;28;20580;-68
2023/12/27 13:12:29;;;;;;;10.52;4.82;;;;;;;;;;5090628;28;20164;-68
2023/12/27 13:14:56;;;;;;;2.90;1.80;;;;;;;;;;5092936;28;20048;-67
2023/12/27 13:17:25;;;;;;;7.13;6.13;;;;;;;;;;5092632;28;20375;-68
2023/12/27 13:19:52;;;;;;;5.43;2.83;;;;;;;;;;5087854;28;20063;-67
2023/12/27 13:22:18;;;;;;;5.40;2.35;;;;;;;;;;5093357;28;20062;-67
2023/12/27 13:24:45;;;;;;;10.30;3.63;;;;;;;;;;5091364;28;20066;-68
2023/12/27 13:27:12;;;;;;;7.50;3.15;;;;;;;;;;5089527;28;20533;-68
2023/12/27 13:29:39;;;;;;;9.70;3.72;;;;;;;;;;5086690;28;20044;-68
2023/12/27 13:32:06;;;;;;;12.00;4.97;;;;;;;;;;5089134;28;20070;-70
2023/12/27 13:34:32;;;;;;;8.32;4.30;;;;;;;;;;5091893;28;20044;-67
2023/12/27 13:36:59;;;;;;;12.18;5.13;;;;;;;;;;5093335;28;20048;-67
2023/12/27 13:39:25;;;;;;;5.93;2.97;;;;;;;;;;5084230;28;20044;-68
2023/12/27 13:41:52;;;;;;;9.95;4.40;;;;;;;;;;5087054;28;20048;-67
2023/12/27 13:44:19;;;;;;;9.32;4.68;;;;;;;;;;5082277;28;20090;-68
2023/12/27 13:46:46;;;;;;;5.35;3.75;;;;;;;;;;5092695;28;20519;-68
2023/12/27 13:49:13;;;;;;;7.05;3.88;;;;;;;;;;5092387;28;20055;-67
2023/12/27 13:51:39;;;;;;;5.32;2.75;;;;;;;;;;5088578;28;20492;-68
2023/12/27 13:54:07;;;;;;;5.45;2.80;;;;;;;;;;5088940;28;20137;-68
2023/12/27 13:56:35;;;;;;;6.97;2.58;;;;;;;;;;5092722;28;20052;-67
2023/12/27 13:59:02;;;;;;;5.60;2.85;;;;;;;;;;5091358;28;20060;-69
2023/12/27 14:01:31;;;;;;;6.75;3.60;;;;;;;;;;5088989;28;20053;-68
2023/12/27 14:04:00;;;;;;;4.90;2.50;;;;;;;;;;5092778;28;20491;-68
2023/12/27 14:06:26;;;;;;;3.92;2.90;;;;;;;;;;5085500;28;20506;-68
2023/12/27 14:08:53;;;;;;;8.63;2.72;;;;;;;;;;5090729;28;20048;-68
2023/12/27 14:11:22;;;;;;;6.15;3.40;;;;;;;;;;5093398;28;20097;-68
2023/12/27 14:13:48;;;;;;;5.25;3.00;;;;;;;;;;5084675;28;20056;-68
2023/12/27 14:16:15;;;;;;;8.27;3.88;;;;;;;;;;5090198;28;20051;-67
2023/12/27 14:18:44;;;;;;;7.32;3.97;;;;;;;;;;5088677;28;20048;-68
2023/12/27 14:21:11;;;;;;;8.00;3.30;;;;;;;;;;5088323;28;20067;-68
2023/12/27 14:23:37;;;;;;;4.55;2.80;;;;;;;;;;5088073;28;20046;-68
2023/12/27 14:26:05;;;;;;;8.73;5.50;;;;;;;;;;5091210;28;20040;-68
2023/12/27 14:28:31;;;;;;;6.53;3.35;;;;;;;;;;5086586;28;20044;-68
2023/12/27 14:30:58;;;;;;;5.68;3.13;;;;;;;;;;5088527;28;20040;-68
2023/12/27 14:33:26;;;;;;;5.88;3.08;;;;;;;;;;5086380;28;20044;-68
2023/12/27 14:35:54;;;;;;;5.22;2.85;;;;;;;;;;5086437;28;20051;-68
2023/12/27 14:38:20;;;;;;;7.50;3.00;;;;;;;;;;5089167;28;20048;-68